sensor_id;sensor_type;location;lat;lon;timestamp;temperature;humidity
15359;DHT22;7779;49.596;11.070;2024-03-22T00:01:56;7.00;73.30
15359;DHT22;7779;49.596;11.070;2024-03-22T00:04:22;7.00;73.30
15359;DHT22;7779;49.596;11.070;2024-03-22T00:06:49;6.90;73.20
15359;DHT22;7779;49.596;11.070;2024-03-22T00:09:15;6.90;73.20
15359;DHT22;7779;49.596;11.070;2024-03-22T00:11:43;6.90;73.20
15359;DHT22;7779;49.596;11.070;2024-03-22T00:14:09;6.90;73.20
15359;DHT22;7779;49.596;11.070;2024-03-22T00:16:36;6.80;73.00
15359;DHT22;7779;49.596;11.070;2024-03-22T00:19:03;6.80;73.00
15359;DHT22;7779;49.596;11.070;2024-03-22T00:21:29;6.80;72.90
15359;DHT22;7779;49.596;11.070;2024-03-22T00:23:56;6.80;73.00
15359;DHT22;7779;49.596;11.070;2024-03-22T00:26:22;6.70;72.90
15359;DHT22;7779;49.596;11.070;2024-03-22T00:28:48;6.70;72.90
15359;DHT22;7779;49.596;11.070;2024-03-22T00:31:14;6.70;73.00
15359;DHT22;7779;49.596;11.070;2024-03-22T00:33:41;6.60;72.90
15359;DHT22;7779;49.596;11.070;2024-03-22T00:36:07;6.60;72.90
15359;DHT22;7779;49.596;11.070;2024-03-22T00:38:33;6.60;72.80
15359;DHT22;7779;49.596;11.070;2024-03-22T00:40:59;6.50;72.70
15359;DHT22;7779;49.596;11.070;2024-03-22T00:43:25;6.50;72.70
15359;DHT22;7779;49.596;11.070;2024-03-22T00:45:50;6.40;72.50
15359;DHT22;7779;49.596;11.070;2024-03-22T00:48:16;6.40;72.50
15359;DHT22;7779;49.596;11.070;2024-03-22T00:50:42;6.30;72.40
15359;DHT22;7779;49.596;11.070;2024-03-22T00:53:07;6.30;72.40
15359;DHT22;7779;49.596;11.070;2024-03-22T00:55:35;6.20;71.80
15359;DHT22;7779;49.596;11.070;2024-03-22T00:58:01;6.20;72.40
15359;DHT22;7779;49.596;11.070;2024-03-22T01:00:27;6.10;72.30
15359;DHT22;7779;49.596;11.070;2024-03-22T01:02:52;6.10;72.40
15359;DHT22;7779;49.596;11.070;2024-03-22T01:05:18;6.00;72.40
15359;DHT22;7779;49.596;11.070;2024-03-22T01:07:44;6.00;72.40
15359;DHT22;7779;49.596;11.070;2024-03-22T01:10:11;5.90;72.40
15359;DHT22;7779;49.596;11.070;2024-03-22T01:12:38;5.90;72.40
15359;DHT22;7779;49.596;11.070;2024-03-22T01:15:05;5.80;72.30
15359;DHT22;7779;49.596;11.070;2024-03-22T01:17:32;5.80;72.30
15359;DHT22;7779;49.596;11.070;2024-03-22T01:19:58;5.70;72.30
15359;DHT22;7779;49.596;11.070;2024-03-22T01:22:24;5.70;72.30
15359;DHT22;7779;49.596;11.070;2024-03-22T01:24:50;5.60;72.30
15359;DHT22;7779;49.596;11.070;2024-03-22T01:27:15;5.60;72.30
15359;DHT22;7779;49.596;11.070;2024-03-22T01:29:41;5.60;72.30
15359;DHT22;7779;49.596;11.070;2024-03-22T01:32:07;5.50;72.20
15359;DHT22;7779;49.596;11.070;2024-03-22T01:34:33;5.50;72.30
15359;DHT22;7779;49.596;11.070;2024-03-22T01:37:00;5.40;72.20
15359;DHT22;7779;49.596;11.070;2024-03-22T01:39:26;5.40;72.20
15359;DHT22;7779;49.596;11.070;2024-03-22T01:41:52;5.40;72.30
15359;DHT22;7779;49.596;11.070;2024-03-22T01:44:18;5.30;72.20
15359;DHT22;7779;49.596;11.070;2024-03-22T01:46:46;5.30;72.30
15359;DHT22;7779;49.596;11.070;2024-03-22T01:49:15;5.20;72.20
15359;DHT22;7779;49.596;11.070;2024-03-22T01:51:42;5.20;73.40
15359;DHT22;7779;49.596;11.070;2024-03-22T01:54:09;5.20;72.30
15359;DHT22;7779;49.596;11.070;2024-03-22T01:56:39;5.10;72.20
15359;DHT22;7779;49.596;11.070;2024-03-22T01:59:06;5.10;72.90
15359;DHT22;7779;49.596;11.070;2024-03-22T02:01:32;5.00;72.20
15359;DHT22;7779;49.596;11.070;2024-03-22T02:03:59;5.00;72.30
15359;DHT22;7779;49.596;11.070;2024-03-22T02:06:24;5.00;72.50
15359;DHT22;7779;49.596;11.070;2024-03-22T02:08:50;4.90;72.50
15359;DHT22;7779;49.596;11.070;2024-03-22T02:11:16;4.90;73.40
15359;DHT22;7779;49.596;11.070;2024-03-22T02:13:42;4.90;72.80
15359;DHT22;7779;49.596;11.070;2024-03-22T02:16:10;4.80;72.70
15359;DHT22;7779;49.596;11.070;2024-03-22T02:18:36;4.80;72.80
15359;DHT22;7779;49.596;11.070;2024-03-22T02:21:02;4.80;72.90
15359;DHT22;7779;49.596;11.070;2024-03-22T02:23:35;4.80;73.00
15359;DHT22;7779;49.596;11.070;2024-03-22T02:26:02;5.40;74.00
15359;DHT22;7779;49.596;11.070;2024-03-22T02:28:30;4.80;73.20
15359;DHT22;7779;49.596;11.070;2024-03-22T02:30:58;4.80;73.60
15359;DHT22;7779;49.596;11.070;2024-03-22T02:33:24;4.80;73.40
15359;DHT22;7779;49.596;11.070;2024-03-22T02:35:50;4.80;73.40
15359;DHT22;7779;49.596;11.070;2024-03-22T02:38:17;4.70;73.30
15359;DHT22;7779;49.596;11.070;2024-03-22T02:40:43;4.70;73.30
15359;DHT22;7779;49.596;11.070;2024-03-22T02:43:10;4.80;73.40
15359;DHT22;7779;49.596;11.070;2024-03-22T02:45:36;4.80;73.50
15359;DHT22;7779;49.596;11.070;2024-03-22T02:48:02;4.80;73.60
15359;DHT22;7779;49.596;11.070;2024-03-22T02:50:33;4.80;73.60
15359;DHT22;7779;49.596;11.070;2024-03-22T02:52:59;4.80;73.80
15359;DHT22;7779;49.596;11.070;2024-03-22T02:55:25;4.80;73.70
15359;DHT22;7779;49.596;11.070;2024-03-22T02:57:51;4.80;73.80
15359;DHT22;7779;49.596;11.070;2024-03-22T03:00:16;4.80;73.80
15359;DHT22;7779;49.596;11.070;2024-03-22T03:02:44;4.80;73.70
15359;DHT22;7779;49.596;11.070;2024-03-22T03:05:11;4.80;73.70
15359;DHT22;7779;49.596;11.070;2024-03-22T03:07:36;4.80;73.70
15359;DHT22;7779;49.596;11.070;2024-03-22T03:10:02;4.80;73.70
15359;DHT22;7779;49.596;11.070;2024-03-22T03:12:28;4.80;74.80
15359;DHT22;7779;49.596;11.070;2024-03-22T03:14:54;4.80;73.70
15359;DHT22;7779;49.596;11.070;2024-03-22T03:17:19;4.70;73.50
15359;DHT22;7779;49.596;11.070;2024-03-22T03:19:45;4.70;73.40
15359;DHT22;7779;49.596;11.070;2024-03-22T03:22:11;4.70;73.40
15359;DHT22;7779;49.596;11.070;2024-03-22T03:24:36;4.70;73.30
15359;DHT22;7779;49.596;11.070;2024-03-22T03:27:02;4.70;73.30
15359;DHT22;7779;49.596;11.070;2024-03-22T03:29:28;4.60;73.20
15359;DHT22;7779;49.596;11.070;2024-03-22T03:31:54;4.70;73.20
15359;DHT22;7779;49.596;11.070;2024-03-22T03:34:19;4.60;73.10
15359;DHT22;7779;49.596;11.070;2024-03-22T03:36:46;4.60;73.10
15359;DHT22;7779;49.596;11.070;2024-03-22T03:39:12;4.50;73.10
15359;DHT22;7779;49.596;11.070;2024-03-22T03:41:38;4.50;73.10
15359;DHT22;7779;49.596;11.070;2024-03-22T03:44:04;4.50;73.20
15359;DHT22;7779;49.596;11.070;2024-03-22T03:46:29;4.50;73.30
15359;DHT22;7779;49.596;11.070;2024-03-22T03:48:55;4.50;73.30
15359;DHT22;7779;49.596;11.070;2024-03-22T03:51:21;4.50;73.30
15359;DHT22;7779;49.596;11.070;2024-03-22T03:53:47;4.50;73.40
15359;DHT22;7779;49.596;11.070;2024-03-22T03:56:12;4.40;73.30
15359;DHT22;7779;49.596;11.070;2024-03-22T03:58:38;4.40;73.40
15359;DHT22;7779;49.596;11.070;2024-03-22T04:01:10;4.40;73.50
15359;DHT22;7779;49.596;11.070;2024-03-22T04:03:35;4.40;73.70
15359;DHT22;7779;49.596;11.070;2024-03-22T04:06:01;4.40;73.60
15359;DHT22;7779;49.596;11.070;2024-03-22T04:08:28;4.40;73.50
15359;DHT22;7779;49.596;11.070;2024-03-22T04:10:56;4.40;73.60
15359;DHT22;7779;49.596;11.070;2024-03-22T04:13:26;4.40;74.30
15359;DHT22;7779;49.596;11.070;2024-03-22T04:15:53;4.40;73.70
15359;DHT22;7779;49.596;11.070;2024-03-22T04:18:19;4.40;73.60
15359;DHT22;7779;49.596;11.070;2024-03-22T04:20:59;4.40;73.50
15359;DHT22;7779;49.596;11.070;2024-03-22T04:23:25;4.40;73.90
15359;DHT22;7779;49.596;11.070;2024-03-22T04:25:55;4.40;73.40
15359;DHT22;7779;49.596;11.070;2024-03-22T04:28:22;4.40;73.50
15359;DHT22;7779;49.596;11.070;2024-03-22T04:30:58;4.40;73.40
15359;DHT22;7779;49.596;11.070;2024-03-22T04:33:26;4.40;73.60
15359;DHT22;7779;49.596;11.070;2024-03-22T04:35:55;4.40;73.40
15359;DHT22;7779;49.596;11.070;2024-03-22T04:38:22;4.40;73.40
15359;DHT22;7779;49.596;11.070;2024-03-22T04:40:48;4.30;73.20
15359;DHT22;7779;49.596;11.070;2024-03-22T04:43:15;4.30;73.20
15359;DHT22;7779;49.596;11.070;2024-03-22T04:45:47;4.40;73.30
15359;DHT22;7779;49.596;11.070;2024-03-22T04:48:21;4.30;73.20
15359;DHT22;7779;49.596;11.070;2024-03-22T04:50:51;4.30;73.30
15359;DHT22;7779;49.596;11.070;2024-03-22T04:53:21;4.30;73.80
15359;DHT22;7779;49.596;11.070;2024-03-22T04:55:47;4.30;72.90
15359;DHT22;7779;49.596;11.070;2024-03-22T04:58:15;4.20;72.80
15359;DHT22;7779;49.596;11.070;2024-03-22T05:00:45;4.20;72.70
15359;DHT22;7779;49.596;11.070;2024-03-22T05:03:12;4.20;72.60
15359;DHT22;7779;49.596;11.070;2024-03-22T05:05:38;4.10;72.50
15359;DHT22;7779;49.596;11.070;2024-03-22T05:08:06;4.10;72.50
15359;DHT22;7779;49.596;11.070;2024-03-22T05:10:32;4.00;72.40
15359;DHT22;7779;49.596;11.070;2024-03-22T05:12:58;4.00;73.00
15359;DHT22;7779;49.596;11.070;2024-03-22T05:15:24;4.00;72.40
15359;DHT22;7779;49.596;11.070;2024-03-22T05:17:51;4.00;72.40
15359;DHT22;7779;49.596;11.070;2024-03-22T05:20:17;3.90;72.30
15359;DHT22;7779;49.596;11.070;2024-03-22T05:22:43;3.90;72.40
15359;DHT22;7779;49.596;11.070;2024-03-22T05:25:09;3.80;72.30
15359;DHT22;7779;49.596;11.070;2024-03-22T05:27:35;3.80;72.40
15359;DHT22;7779;49.596;11.070;2024-03-22T05:30:02;3.80;72.50
15359;DHT22;7779;49.596;11.070;2024-03-22T05:32:29;3.70;72.50
15359;DHT22;7779;49.596;11.070;2024-03-22T05:34:55;3.70;72.60
15359;DHT22;7779;49.596;11.070;2024-03-22T05:37:21;3.70;72.70
15359;DHT22;7779;49.596;11.070;2024-03-22T05:39:46;3.70;72.80
15359;DHT22;7779;49.596;11.070;2024-03-22T05:42:13;3.70;73.60
15359;DHT22;7779;49.596;11.070;2024-03-22T05:44:39;3.70;73.10
15359;DHT22;7779;49.596;11.070;2024-03-22T05:47:04;3.70;73.30
15359;DHT22;7779;49.596;11.070;2024-03-22T05:49:30;3.70;73.50
15359;DHT22;7779;49.596;11.070;2024-03-22T05:51:56;3.60;73.60
15359;DHT22;7779;49.596;11.070;2024-03-22T05:54:22;3.70;73.80
15359;DHT22;7779;49.596;11.070;2024-03-22T05:56:47;3.70;73.90
15359;DHT22;7779;49.596;11.070;2024-03-22T05:59:13;3.80;74.10
15359;DHT22;7779;49.596;11.070;2024-03-22T06:01:39;3.80;74.20
15359;DHT22;7779;49.596;11.070;2024-03-22T06:04:05;3.90;74.40
15359;DHT22;7779;49.596;11.070;2024-03-22T06:06:34;3.90;74.50
15359;DHT22;7779;49.596;11.070;2024-03-22T06:09:01;4.00;74.80
15359;DHT22;7779;49.596;11.070;2024-03-22T06:11:35;4.10;74.90
15359;DHT22;7779;49.596;11.070;2024-03-22T06:14:01;4.20;75.10
15359;DHT22;7779;49.596;11.070;2024-03-22T06:16:27;4.20;75.30
15359;DHT22;7779;49.596;11.070;2024-03-22T06:18:52;4.30;75.70
15359;DHT22;7779;49.596;11.070;2024-03-22T06:21:18;4.40;76.00
15359;DHT22;7779;49.596;11.070;2024-03-22T06:23:50;4.60;76.50
15359;DHT22;7779;49.596;11.070;2024-03-22T06:26:17;4.70;76.80
15359;DHT22;7779;49.596;11.070;2024-03-22T06:28:43;4.90;77.70
15359;DHT22;7779;49.596;11.070;2024-03-22T06:31:09;5.00;77.30
15359;DHT22;7779;49.596;11.070;2024-03-22T06:33:35;5.10;77.30
15359;DHT22;7779;49.596;11.070;2024-03-22T06:36:01;5.30;77.40
15359;DHT22;7779;49.596;11.070;2024-03-22T06:38:28;5.40;77.30
15359;DHT22;7779;49.596;11.070;2024-03-22T06:40:54;5.60;77.20
15359;DHT22;7779;49.596;11.070;2024-03-22T06:43:20;5.70;77.10
15359;DHT22;7779;49.596;11.070;2024-03-22T06:45:45;5.80;77.10
15359;DHT22;7779;49.596;11.070;2024-03-22T06:48:11;5.90;77.10
15359;DHT22;7779;49.596;11.070;2024-03-22T06:50:37;6.00;77.70
15359;DHT22;7779;49.596;11.070;2024-03-22T06:53:02;6.20;77.20
15359;DHT22;7779;49.596;11.070;2024-03-22T06:55:28;6.30;77.20
15359;DHT22;7779;49.596;11.070;2024-03-22T06:57:54;6.40;77.20
15359;DHT22;7779;49.596;11.070;2024-03-22T07:00:20;6.50;77.20
15359;DHT22;7779;49.596;11.070;2024-03-22T07:02:45;6.60;77.50
15359;DHT22;7779;49.596;11.070;2024-03-22T07:05:11;6.70;77.10
15359;DHT22;7779;49.596;11.070;2024-03-22T07:07:37;6.80;77.10
15359;DHT22;7779;49.596;11.070;2024-03-22T07:10:04;6.90;77.20
15359;DHT22;7779;49.596;11.070;2024-03-22T07:12:33;7.00;77.20
15359;DHT22;7779;49.596;11.070;2024-03-22T07:15:00;7.20;77.40
15359;DHT22;7779;49.596;11.070;2024-03-22T07:17:27;7.30;77.40
15359;DHT22;7779;49.596;11.070;2024-03-22T07:19:54;7.40;77.40
15359;DHT22;7779;49.596;11.070;2024-03-22T07:22:20;7.50;77.50
15359;DHT22;7779;49.596;11.070;2024-03-22T07:24:46;7.60;77.60
15359;DHT22;7779;49.596;11.070;2024-03-22T07:27:16;7.70;77.60
15359;DHT22;7779;49.596;11.070;2024-03-22T07:29:43;7.80;77.60
15359;DHT22;7779;49.596;11.070;2024-03-22T07:32:09;7.90;77.70
15359;DHT22;7779;49.596;11.070;2024-03-22T07:34:35;8.00;77.70
15359;DHT22;7779;49.596;11.070;2024-03-22T07:37:01;8.10;77.80
15359;DHT22;7779;49.596;11.070;2024-03-22T07:39:26;8.30;78.10
15359;DHT22;7779;49.596;11.070;2024-03-22T07:41:52;8.40;78.60
15359;DHT22;7779;49.596;11.070;2024-03-22T07:44:18;8.50;78.10
15359;DHT22;7779;49.596;11.070;2024-03-22T07:46:45;8.60;78.10
15359;DHT22;7779;49.596;11.070;2024-03-22T07:49:12;8.70;78.10
15359;DHT22;7779;49.596;11.070;2024-03-22T07:51:38;8.80;78.30
15359;DHT22;7779;49.596;11.070;2024-03-22T07:54:04;9.00;78.30
15359;DHT22;7779;49.596;11.070;2024-03-22T07:56:30;9.10;78.00
15359;DHT22;7779;49.596;11.070;2024-03-22T07:58:55;9.20;78.00
15359;DHT22;7779;49.596;11.070;2024-03-22T08:01:22;9.30;77.80
15359;DHT22;7779;49.596;11.070;2024-03-22T08:03:49;9.40;77.70
15359;DHT22;7779;49.596;11.070;2024-03-22T08:06:15;9.50;77.70
15359;DHT22;7779;49.596;11.070;2024-03-22T08:08:41;9.60;77.70
15359;DHT22;7779;49.596;11.070;2024-03-22T08:11:06;9.70;77.70
15359;DHT22;7779;49.596;11.070;2024-03-22T08:13:32;9.90;77.70
15359;DHT22;7779;49.596;11.070;2024-03-22T08:15:58;9.90;77.40
15359;DHT22;7779;49.596;11.070;2024-03-22T08:18:23;10.00;76.20
15359;DHT22;7779;49.596;11.070;2024-03-22T08:20:49;10.20;76.00
15359;DHT22;7779;49.596;11.070;2024-03-22T08:23:15;10.20;75.60
15359;DHT22;7779;49.596;11.070;2024-03-22T08:25:42;10.30;75.50
15359;DHT22;7779;49.596;11.070;2024-03-22T08:28:07;10.40;75.20
15359;DHT22;7779;49.596;11.070;2024-03-22T08:30:33;10.40;74.90
15359;DHT22;7779;49.596;11.070;2024-03-22T08:33:03;10.50;74.90
15359;DHT22;7779;49.596;11.070;2024-03-22T08:35:29;10.60;75.00
15359;DHT22;7779;49.596;11.070;2024-03-22T08:37:55;10.60;74.80
15359;DHT22;7779;49.596;11.070;2024-03-22T08:40:21;10.70;74.50
15359;DHT22;7779;49.596;11.070;2024-03-22T08:42:47;10.80;74.40
15359;DHT22;7779;49.596;11.070;2024-03-22T08:45:13;10.90;74.10
15359;DHT22;7779;49.596;11.070;2024-03-22T08:47:39;10.90;73.90
15359;DHT22;7779;49.596;11.070;2024-03-22T08:50:06;11.00;73.80
15359;DHT22;7779;49.596;11.070;2024-03-22T08:52:32;11.00;73.60
15359;DHT22;7779;49.596;11.070;2024-03-22T08:54:59;11.10;73.70
15359;DHT22;7779;49.596;11.070;2024-03-22T08:57:25;11.10;73.70
15359;DHT22;7779;49.596;11.070;2024-03-22T08:59:51;11.20;73.80
15359;DHT22;7779;49.596;11.070;2024-03-22T09:02:16;11.20;73.70
15359;DHT22;7779;49.596;11.070;2024-03-22T09:04:42;11.30;73.70
15359;DHT22;7779;49.596;11.070;2024-03-22T09:07:08;11.40;73.70
15359;DHT22;7779;49.596;11.070;2024-03-22T09:09:33;11.50;73.70
15359;DHT22;7779;49.596;11.070;2024-03-22T09:11:59;11.60;73.80
15359;DHT22;7779;49.596;11.070;2024-03-22T09:14:25;11.70;74.00
15359;DHT22;7779;49.596;11.070;2024-03-22T09:16:51;11.80;74.00
15359;DHT22;7779;49.596;11.070;2024-03-22T09:19:17;11.90;74.10
15359;DHT22;7779;49.596;11.070;2024-03-22T09:21:43;11.90;74.10
15359;DHT22;7779;49.596;11.070;2024-03-22T09:24:09;12.10;74.20
15359;DHT22;7779;49.596;11.070;2024-03-22T09:26:35;12.20;74.30
15359;DHT22;7779;49.596;11.070;2024-03-22T09:29:01;12.30;74.50
15359;DHT22;7779;49.596;11.070;2024-03-22T09:31:27;12.40;74.60
15359;DHT22;7779;49.596;11.070;2024-03-22T09:33:52;12.50;74.50
15359;DHT22;7779;49.596;11.070;2024-03-22T09:36:18;12.70;74.50
15359;DHT22;7779;49.596;11.070;2024-03-22T09:38:44;12.80;74.50
15359;DHT22;7779;49.596;11.070;2024-03-22T09:41:09;13.00;73.70
15359;DHT22;7779;49.596;11.070;2024-03-22T09:43:36;13.10;74.50
15359;DHT22;7779;49.596;11.070;2024-03-22T09:46:04;13.20;74.30
15359;DHT22;7779;49.596;11.070;2024-03-22T09:48:31;13.40;74.40
15359;DHT22;7779;49.596;11.070;2024-03-22T09:50:59;13.50;74.30
15359;DHT22;7779;49.596;11.070;2024-03-22T09:53:27;13.60;74.10
15359;DHT22;7779;49.596;11.070;2024-03-22T09:55:57;13.80;74.10
15359;DHT22;7779;49.596;11.070;2024-03-22T09:58:25;14.00;74.10
15359;DHT22;7779;49.596;11.070;2024-03-22T10:00:51;14.10;73.90
15359;DHT22;7779;49.596;11.070;2024-03-22T10:03:17;14.30;73.70
15359;DHT22;7779;49.596;11.070;2024-03-22T10:05:43;14.50;73.40
15359;DHT22;7779;49.596;11.070;2024-03-22T10:08:08;14.60;73.20
15359;DHT22;7779;49.596;11.070;2024-03-22T10:10:35;14.80;73.00
15359;DHT22;7779;49.596;11.070;2024-03-22T10:13:01;15.00;72.60
15359;DHT22;7779;49.596;11.070;2024-03-22T10:15:28;15.20;72.50
15359;DHT22;7779;49.596;11.070;2024-03-22T10:17:57;15.30;72.20
15359;DHT22;7779;49.596;11.070;2024-03-22T10:20:23;15.50;71.80
15359;DHT22;7779;49.596;11.070;2024-03-22T10:22:54;15.70;71.70
15359;DHT22;7779;49.596;11.070;2024-03-22T10:25:23;15.90;71.30
15359;DHT22;7779;49.596;11.070;2024-03-22T10:27:49;16.10;71.20
15359;DHT22;7779;49.596;11.070;2024-03-22T10:30:16;16.20;70.90
15359;DHT22;7779;49.596;11.070;2024-03-22T10:32:43;16.40;70.60
15359;DHT22;7779;49.596;11.070;2024-03-22T10:35:13;16.60;70.50
15359;DHT22;7779;49.596;11.070;2024-03-22T10:37:40;16.70;69.40
15359;DHT22;7779;49.596;11.070;2024-03-22T10:40:06;16.90;69.80
15359;DHT22;7779;49.596;11.070;2024-03-22T10:42:35;17.10;69.20
15359;DHT22;7779;49.596;11.070;2024-03-22T10:45:06;17.30;68.60
15359;DHT22;7779;49.596;11.070;2024-03-22T10:47:34;17.40;67.40
15359;DHT22;7779;49.596;11.070;2024-03-22T10:52:39;17.70;66.70
15359;DHT22;7779;49.596;11.070;2024-03-22T10:55:20;17.80;65.80
15359;DHT22;7779;49.596;11.070;2024-03-22T10:57:50;17.80;66.00
15359;DHT22;7779;49.596;11.070;2024-03-22T11:00:27;17.90;66.00
15359;DHT22;7779;49.596;11.070;2024-03-22T11:02:57;18.00;62.30
15359;DHT22;7779;49.596;11.070;2024-03-22T11:05:23;18.00;65.40
15359;DHT22;7779;49.596;11.070;2024-03-22T11:08:05;18.10;65.20
15359;DHT22;7779;49.596;11.070;2024-03-22T11:10:33;18.20;62.60
15359;DHT22;7779;49.596;11.070;2024-03-22T11:13:07;18.30;64.90
15359;DHT22;7779;49.596;11.070;2024-03-22T11:15:34;18.40;63.70
15359;DHT22;7779;49.596;11.070;2024-03-22T11:18:00;18.50;64.70
15359;DHT22;7779;49.596;11.070;2024-03-22T11:20:27;18.50;64.50
15359;DHT22;7779;49.596;11.070;2024-03-22T11:22:53;18.60;64.40
15359;DHT22;7779;49.596;11.070;2024-03-22T11:25:19;18.70;64.30
15359;DHT22;7779;49.596;11.070;2024-03-22T11:27:48;18.80;64.10
15359;DHT22;7779;49.596;11.070;2024-03-22T11:30:15;18.90;63.60
15359;DHT22;7779;49.596;11.070;2024-03-22T11:32:41;19.00;63.70
15359;DHT22;7779;49.596;11.070;2024-03-22T11:35:11;19.10;63.30
15359;DHT22;7779;49.596;11.070;2024-03-22T11:37:39;19.20;62.80
15359;DHT22;7779;49.596;11.070;2024-03-22T11:40:09;19.20;62.50
15359;DHT22;7779;49.596;11.070;2024-03-22T11:42:40;19.20;62.10
15359;DHT22;7779;49.596;11.070;2024-03-22T11:45:09;19.30;61.10
15359;DHT22;7779;49.596;11.070;2024-03-22T11:47:36;19.30;61.20
15359;DHT22;7779;49.596;11.070;2024-03-22T11:50:03;19.30;60.90
15359;DHT22;7779;49.596;11.070;2024-03-22T11:52:29;19.40;60.90
15359;DHT22;7779;49.596;11.070;2024-03-22T11:54:55;19.40;60.50
15359;DHT22;7779;49.596;11.070;2024-03-22T11:57:22;19.40;60.40
15359;DHT22;7779;49.596;11.070;2024-03-22T11:59:49;19.40;60.00
15359;DHT22;7779;49.596;11.070;2024-03-22T12:02:16;19.40;59.70
15359;DHT22;7779;49.596;11.070;2024-03-22T12:04:46;19.40;59.50
15359;DHT22;7779;49.596;11.070;2024-03-22T12:07:17;19.40;59.30
15359;DHT22;7779;49.596;11.070;2024-03-22T12:09:44;19.40;58.60
15359;DHT22;7779;49.596;11.070;2024-03-22T12:12:12;19.40;56.80
15359;DHT22;7779;49.596;11.070;2024-03-22T12:14:38;19.40;58.90
15359;DHT22;7779;49.596;11.070;2024-03-22T12:17:05;19.50;59.00
15359;DHT22;7779;49.596;11.070;2024-03-22T12:19:31;19.50;58.80
15359;DHT22;7779;49.596;11.070;2024-03-22T12:21:57;19.50;58.50
15359;DHT22;7779;49.596;11.070;2024-03-22T12:24:24;19.60;58.40
15359;DHT22;7779;49.596;11.070;2024-03-22T12:26:50;19.60;58.20
15359;DHT22;7779;49.596;11.070;2024-03-22T12:29:17;19.60;57.90
15359;DHT22;7779;49.596;11.070;2024-03-22T12:31:43;19.60;57.70
15359;DHT22;7779;49.596;11.070;2024-03-22T12:34:10;19.60;57.50
15359;DHT22;7779;49.596;11.070;2024-03-22T12:36:36;19.60;57.40
15359;DHT22;7779;49.596;11.070;2024-03-22T12:39:02;19.70;57.20
15359;DHT22;7779;49.596;11.070;2024-03-22T12:41:28;19.70;57.20
15359;DHT22;7779;49.596;11.070;2024-03-22T12:43:55;19.70;57.10
15359;DHT22;7779;49.596;11.070;2024-03-22T12:46:21;19.70;57.10
15359;DHT22;7779;49.596;11.070;2024-03-22T12:48:47;19.90;57.20
15359;DHT22;7779;49.596;11.070;2024-03-22T12:51:14;19.90;55.60
15359;DHT22;7779;49.596;11.070;2024-03-22T12:53:40;19.90;56.80
15359;DHT22;7779;49.596;11.070;2024-03-22T12:56:06;20.00;56.70
15359;DHT22;7779;49.596;11.070;2024-03-22T12:58:32;20.10;56.70
15359;DHT22;7779;49.596;11.070;2024-03-22T13:00:58;20.20;56.80
15359;DHT22;7779;49.596;11.070;2024-03-22T13:03:26;20.20;56.60
15359;DHT22;7779;49.596;11.070;2024-03-22T13:05:53;20.30;56.60
15359;DHT22;7779;49.596;11.070;2024-03-22T13:08:19;20.40;56.60
15359;DHT22;7779;49.596;11.070;2024-03-22T13:10:46;20.50;56.60
15359;DHT22;7779;49.596;11.070;2024-03-22T13:13:13;20.70;56.50
15359;DHT22;7779;49.596;11.070;2024-03-22T13:15:42;20.80;56.50
15359;DHT22;7779;49.596;11.070;2024-03-22T13:18:08;20.90;56.40
15359;DHT22;7779;49.596;11.070;2024-03-22T13:20:35;21.10;56.30
15359;DHT22;7779;49.596;11.070;2024-03-22T13:23:02;21.20;56.10
15359;DHT22;7779;49.596;11.070;2024-03-22T13:25:28;21.30;55.80
15359;DHT22;7779;49.596;11.070;2024-03-22T13:27:54;21.40;55.50
15359;DHT22;7779;49.596;11.070;2024-03-22T13:30:20;21.40;55.20
15359;DHT22;7779;49.596;11.070;2024-03-22T13:32:45;21.50;54.90
15359;DHT22;7779;49.596;11.070;2024-03-22T13:35:11;21.50;54.60
15359;DHT22;7779;49.596;11.070;2024-03-22T13:37:37;21.60;54.40
15359;DHT22;7779;49.596;11.070;2024-03-22T13:40:03;21.70;54.20
15359;DHT22;7779;49.596;11.070;2024-03-22T13:42:29;21.70;53.80
15359;DHT22;7779;49.596;11.070;2024-03-22T13:44:58;21.70;53.50
15359;DHT22;7779;49.596;11.070;2024-03-22T13:47:24;21.70;52.90
15359;DHT22;7779;49.596;11.070;2024-03-22T13:49:53;21.70;53.00
15359;DHT22;7779;49.596;11.070;2024-03-22T13:52:19;21.70;52.80
15359;DHT22;7779;49.596;11.070;2024-03-22T13:54:46;21.60;52.50
15359;DHT22;7779;49.596;11.070;2024-03-22T13:57:12;21.60;52.40
15359;DHT22;7779;49.596;11.070;2024-03-22T13:59:38;21.50;52.30
15359;DHT22;7779;49.596;11.070;2024-03-22T14:02:06;21.60;52.40
15359;DHT22;7779;49.596;11.070;2024-03-22T14:04:33;21.50;52.30
15359;DHT22;7779;49.596;11.070;2024-03-22T14:06:59;21.50;52.10
15359;DHT22;7779;49.596;11.070;2024-03-22T14:09:33;21.40;51.90
15359;DHT22;7779;49.596;11.070;2024-03-22T14:12:00;21.40;52.00
15359;DHT22;7779;49.596;11.070;2024-03-22T14:14:26;21.40;51.90
15359;DHT22;7779;49.596;11.070;2024-03-22T14:16:52;21.40;51.80
15359;DHT22;7779;49.596;11.070;2024-03-22T14:19:19;21.30;51.60
15359;DHT22;7779;49.596;11.070;2024-03-22T14:21:47;21.20;51.50
15359;DHT22;7779;49.596;11.070;2024-03-22T14:24:14;21.10;51.10
15359;DHT22;7779;49.596;11.070;2024-03-22T14:26:40;21.00;51.30
15359;DHT22;7779;49.596;11.070;2024-03-22T14:29:12;21.00;51.30
15359;DHT22;7779;49.596;11.070;2024-03-22T14:31:38;20.90;50.90
15359;DHT22;7779;49.596;11.070;2024-03-22T14:34:07;20.80;51.20
15359;DHT22;7779;49.596;11.070;2024-03-22T14:36:33;20.80;50.90
15359;DHT22;7779;49.596;11.070;2024-03-22T14:38:59;20.70;51.10
15359;DHT22;7779;49.596;11.070;2024-03-22T14:41:25;20.70;51.20
15359;DHT22;7779;49.596;11.070;2024-03-22T14:43:51;20.60;51.10
15359;DHT22;7779;49.596;11.070;2024-03-22T14:46:16;20.50;51.00
15359;DHT22;7779;49.596;11.070;2024-03-22T14:48:45;20.50;51.00
15359;DHT22;7779;49.596;11.070;2024-03-22T14:51:11;20.50;51.10
15359;DHT22;7779;49.596;11.070;2024-03-22T14:53:37;20.40;51.00
15359;DHT22;7779;49.596;11.070;2024-03-22T14:56:03;20.40;51.00
15359;DHT22;7779;49.596;11.070;2024-03-22T14:58:30;20.30;51.00
15359;DHT22;7779;49.596;11.070;2024-03-22T15:00:59;20.30;51.10
15359;DHT22;7779;49.596;11.070;2024-03-22T15:03:26;20.20;51.00
15359;DHT22;7779;49.596;11.070;2024-03-22T15:05:54;20.20;51.10
15359;DHT22;7779;49.596;11.070;2024-03-22T15:08:21;20.20;51.10
15359;DHT22;7779;49.596;11.070;2024-03-22T15:10:48;20.20;51.10
15359;DHT22;7779;49.596;11.070;2024-03-22T15:13:15;20.20;51.10
15359;DHT22;7779;49.596;11.070;2024-03-22T15:15:41;20.20;50.90
15359;DHT22;7779;49.596;11.070;2024-03-22T15:18:09;20.10;50.80
15359;DHT22;7779;49.596;11.070;2024-03-22T15:20:35;20.10;50.80
15359;DHT22;7779;49.596;11.070;2024-03-22T15:23:01;20.00;50.70
15359;DHT22;7779;49.596;11.070;2024-03-22T15:25:28;20.00;50.80
15359;DHT22;7779;49.596;11.070;2024-03-22T15:27:54;20.00;50.90
15359;DHT22;7779;49.596;11.070;2024-03-22T15:30:20;19.90;50.70
15359;DHT22;7779;49.596;11.070;2024-03-22T15:32:47;19.90;50.80
15359;DHT22;7779;49.596;11.070;2024-03-22T15:35:12;19.90;50.90
15359;DHT22;7779;49.596;11.070;2024-03-22T15:37:39;19.80;50.90
15359;DHT22;7779;49.596;11.070;2024-03-22T15:40:08;19.80;50.70